Forside
METAR-TAF:

METAR-TAF

Lufthavne :

Bornholms Lufthavn

Rønne, Danmark

Breddekreds: 55-04N, længdekreds: 014-45E, højde: 16 m

Aktuelle vejr

Denne rapport blev lavet for 16 minutter siden, kl. 15:20 UTC
Vind 13 kt fra sydøst
Temperatur 10°C
Fugtighed 50%
Tryk 1024 hPa
Sigt 10 km eller mere

METAR: EKRN 081520Z AUTO 14013KT 9999 NCD 10/M00 Q1024

Tid: 17:36 (15:36 UTC)

Vejrudsigter

Denne rapport blev lavet for 1 time og 16 minutter siden, kl. 14:20 UTC
Foreløbig gælder fra 08 på 15 UTC til 08 på 22 UTC
Vind 12 kt fra sydøst
Sigt 10 km eller mere
ingen skyer under 1500m og ingen cumulonimbus

TAF: EKRN 081420Z 0815/0822 14012KT CAVOK

Vejrobservationer og prognoser fra mere end 4000 lufthavne (METAR og TAF).

De gule og røde prikker repræsenterer de meteorologiske stationer.

Flyt musen over at se navnet på stationen.

Så klik over at se vejr observationer og prognoser.

At skifte det kort: Klik på de grønne knapper med et sort kors for at zoome ind; på den grønne knap med en bindestreg for at zoome ud; eller på de grønne pile for tilstødende kort.


METAR-TAF: